createdAt,value
2023-05-10T00:02:08.826Z,9.10
2023-05-10T00:04:35.452Z,8.38
2023-05-10T00:07:02.387Z,11.85
2023-05-10T00:09:29.033Z,9.73
2023-05-10T00:11:55.882Z,11.00
2023-05-10T00:14:22.503Z,11.93
2023-05-10T00:16:49.212Z,9.80
2023-05-10T00:19:16.286Z,11.77
2023-05-10T00:21:42.930Z,10.32
2023-05-10T00:24:09.538Z,10.55
2023-05-10T00:26:36.318Z,8.25
2023-05-10T00:29:03.041Z,10.23
2023-05-10T00:31:29.773Z,8.65
2023-05-10T00:33:56.973Z,10.60
2023-05-10T00:36:23.597Z,14.02
2023-05-10T00:38:50.245Z,7.68
2023-05-10T00:41:16.842Z,11.23
2023-05-10T00:43:43.485Z,22.13
2023-05-10T00:46:10.393Z,12.18
2023-05-10T00:48:37.369Z,25.90
2023-05-10T00:51:04.582Z,16.98
2023-05-10T00:53:33.443Z,17.80
2023-05-10T00:56:00.795Z,23.00
2023-05-10T00:58:29.253Z,19.60
2023-05-10T01:00:58.189Z,27.33
2023-05-10T01:03:25.623Z,12.73
2023-05-10T01:05:52.322Z,15.95
2023-05-10T01:08:19.527Z,19.42
2023-05-10T01:10:46.631Z,19.27
2023-05-10T01:13:24.335Z,10.38
2023-05-10T01:15:51.168Z,19.63
2023-05-10T01:18:21.730Z,17.58
2023-05-10T01:20:58.204Z,15.95
2023-05-10T01:23:58.740Z,16.90
2023-05-10T01:26:31.671Z,16.70
2023-05-10T01:28:58.247Z,13.32
2023-05-10T01:31:46.816Z,13.68
2023-05-10T01:34:21.894Z,17.20
2023-05-10T01:36:48.521Z,17.90
2023-05-10T01:39:33.324Z,14.38
2023-05-10T01:42:15.310Z,14.35
2023-05-10T01:45:12.351Z,14.75
2023-05-10T01:47:43.429Z,12.32
2023-05-10T01:50:19.818Z,12.77
2023-05-10T01:52:52.419Z,13.15
2023-05-10T01:55:21.364Z,13.07
2023-05-10T01:57:51.327Z,14.82
2023-05-10T02:00:19.948Z,15.10
2023-05-10T02:02:48.747Z,13.77
2023-05-10T02:05:17.160Z,11.88
2023-05-10T02:07:45.427Z,11.80
2023-05-10T02:10:14.458Z,13.75
2023-05-10T02:12:48.173Z,10.40
2023-05-10T02:15:21.143Z,12.70
2023-05-10T02:17:48.726Z,15.05
2023-05-10T02:20:18.826Z,15.05
2023-05-10T02:22:48.158Z,14.68
2023-05-10T02:25:16.662Z,12.73
2023-05-10T02:27:45.552Z,12.43
2023-05-10T02:30:14.846Z,13.00
2023-05-10T02:32:42.744Z,15.18
2023-05-10T02:35:10.869Z,8.05
2023-05-10T02:37:39.540Z,14.35
2023-05-10T02:40:07.457Z,15.65
2023-05-10T02:42:37.990Z,11.80
2023-05-10T02:45:12.617Z,8.60
2023-05-10T02:47:40.027Z,15.75
2023-05-10T02:50:07.497Z,12.60
2023-05-10T02:52:47.045Z,13.55
2023-05-10T02:55:17.154Z,11.98
2023-05-10T02:57:58.057Z,13.60
2023-05-10T03:00:26.288Z,10.07
2023-05-10T03:02:53.476Z,13.05
2023-05-10T03:05:20.541Z,13.57
2023-05-10T03:07:48.082Z,10.98
2023-05-10T03:10:15.098Z,17.25
2023-05-10T03:13:03.957Z,15.93
2023-05-10T03:15:47.896Z,10.60
2023-05-10T03:18:22.373Z,15.02
2023-05-10T03:20:50.835Z,10.70
2023-05-10T03:23:26.639Z,10.45
2023-05-10T03:25:53.602Z,12.05
2023-05-10T03:28:21.879Z,9.77
2023-05-10T03:30:48.784Z,9.38
2023-05-10T03:33:15.497Z,10.27
2023-05-10T03:35:43.232Z,11.07
2023-05-10T03:38:09.821Z,9.50
2023-05-10T03:40:36.509Z,7.72
2023-05-10T03:43:03.403Z,11.57
2023-05-10T03:45:30.113Z,13.10
2023-05-10T03:47:56.804Z,10.63
2023-05-10T03:50:23.542Z,11.55
2023-05-10T03:52:50.270Z,9.55
2023-05-10T03:55:17.371Z,10.25
2023-05-10T03:57:44.073Z,8.13
2023-05-10T04:00:11.556Z,9.32
2023-05-10T04:02:38.781Z,9.40
2023-05-10T04:05:05.841Z,8.68
2023-05-10T04:07:32.500Z,9.00
2023-05-10T04:09:59.151Z,9.35
2023-05-10T04:12:25.792Z,7.78
2023-05-10T04:14:52.469Z,8.45
2023-05-10T04:17:19.096Z,8.77
2023-05-10T04:19:45.808Z,10.15
2023-05-10T04:22:12.342Z,11.73
2023-05-10T04:24:38.996Z,8.23
2023-05-10T04:27:05.722Z,7.35
2023-05-10T04:29:32.420Z,11.20
2023-05-10T04:31:59.065Z,7.20
2023-05-10T04:34:26.499Z,7.38
2023-05-10T04:36:53.172Z,5.85
2023-05-10T04:39:19.739Z,9.90
2023-05-10T04:41:46.580Z,9.95
2023-05-10T04:44:13.336Z,10.00
2023-05-10T04:46:40.213Z,10.10
2023-05-10T04:49:07.087Z,7.82
2023-05-10T04:51:33.775Z,9.43
2023-05-10T04:54:06.202Z,7.75
2023-05-10T04:56:34.250Z,8.23
2023-05-10T04:59:00.881Z,6.72
2023-05-10T05:01:27.582Z,8.55
2023-05-10T05:03:54.408Z,7.30
2023-05-10T05:06:22.238Z,10.50
2023-05-10T05:08:50.630Z,9.27
2023-05-10T05:11:18.328Z,7.60
2023-05-10T05:13:45.000Z,6.60
2023-05-10T05:16:12.543Z,9.63
2023-05-10T05:18:39.427Z,9.20
2023-05-10T05:21:18.926Z,9.13
2023-05-10T05:23:45.948Z,9.18
2023-05-10T05:26:13.062Z,8.93
2023-05-10T05:28:39.683Z,8.25
2023-05-10T05:31:07.052Z,8.75
2023-05-10T05:33:33.869Z,7.13
2023-05-10T05:36:05.207Z,7.70
2023-05-10T05:38:32.351Z,9.02
2023-05-10T05:40:59.118Z,6.88
2023-05-10T05:43:26.035Z,8.82
2023-05-10T05:45:56.310Z,9.43
2023-05-10T05:48:22.915Z,7.50
2023-05-10T05:50:49.512Z,7.95
2023-05-10T05:53:16.885Z,10.98
2023-05-10T05:55:54.234Z,11.55
2023-05-10T05:58:21.567Z,14.65
2023-05-10T06:00:48.188Z,14.38
2023-05-10T06:03:15.023Z,15.73
2023-05-10T06:05:41.773Z,13.88
2023-05-10T06:08:08.347Z,12.68
2023-05-10T06:10:38.290Z,11.82
2023-05-10T06:13:05.007Z,12.45
2023-05-10T06:15:31.749Z,12.75
2023-05-10T06:17:58.591Z,11.90
2023-05-10T06:20:25.171Z,9.90
2023-05-10T06:22:51.893Z,10.93
2023-05-10T06:25:19.414Z,11.20
2023-05-10T06:27:49.776Z,10.68
2023-05-10T06:30:18.638Z,9.75
2023-05-10T06:32:46.174Z,10.95
2023-05-10T06:35:12.868Z,12.55
2023-05-10T06:37:39.580Z,10.75
2023-05-10T06:40:07.305Z,10.60
2023-05-10T06:42:33.871Z,11.05
2023-05-10T06:45:00.691Z,10.10
2023-05-10T06:47:27.409Z,8.55
2023-05-10T06:49:54.055Z,8.00
2023-05-10T06:52:20.770Z,9.10
2023-05-10T06:54:47.360Z,9.07
2023-05-10T06:57:27.473Z,7.60
2023-05-10T06:59:58.563Z,11.60
2023-05-10T07:02:25.258Z,9.35
2023-05-10T07:04:53.089Z,11.52
2023-05-10T07:07:20.112Z,5.05
2023-05-10T07:09:46.903Z,7.20
2023-05-10T07:12:15.400Z,11.02
2023-05-10T07:14:42.944Z,14.85
2023-05-10T07:17:09.860Z,10.20
2023-05-10T07:19:37.070Z,10.88
2023-05-10T07:22:04.237Z,10.13
2023-05-10T07:24:32.367Z,10.65
2023-05-10T07:26:59.034Z,9.18
2023-05-10T07:29:25.742Z,10.00
2023-05-10T07:31:52.392Z,8.60
2023-05-10T07:34:19.114Z,9.02
2023-05-10T07:36:45.892Z,8.95
2023-05-10T07:39:16.236Z,12.18
2023-05-10T07:41:47.872Z,15.10
2023-05-10T07:44:14.556Z,8.23
2023-05-10T07:46:41.556Z,13.40
2023-05-10T07:49:08.204Z,8.27
2023-05-10T07:51:34.842Z,7.97
2023-05-10T07:54:01.478Z,10.30
2023-05-10T07:56:30.766Z,8.65
2023-05-10T07:58:57.593Z,7.10
2023-05-10T08:01:24.560Z,6.78
2023-05-10T08:03:52.150Z,10.50
2023-05-10T08:06:20.034Z,9.18
2023-05-10T08:08:50.438Z,11.00
2023-05-10T08:11:18.533Z,10.45
2023-05-10T08:13:49.945Z,12.10
2023-05-10T08:16:17.911Z,11.63
2023-05-10T08:18:46.604Z,9.82
2023-05-10T08:21:13.946Z,10.85
2023-05-10T08:23:40.763Z,7.00
2023-05-10T08:26:07.476Z,8.23
2023-05-10T08:28:34.268Z,8.95
2023-05-10T08:31:01.056Z,10.93
2023-05-10T08:33:27.767Z,8.30
2023-05-10T08:35:54.358Z,9.18
2023-05-10T08:38:20.986Z,7.28
2023-05-10T08:40:49.958Z,7.45
2023-05-10T08:43:16.712Z,9.55
2023-05-10T08:45:46.380Z,10.50
2023-05-10T08:48:13.015Z,9.90
2023-05-10T08:50:41.847Z,11.50
2023-05-10T08:53:14.271Z,7.75
2023-05-10T08:55:43.217Z,16.13
2023-05-10T08:58:10.542Z,10.95
2023-05-10T09:00:38.491Z,8.98
2023-05-10T09:03:06.470Z,7.45
2023-05-10T09:05:33.615Z,10.02
2023-05-10T09:08:01.633Z,10.55
2023-05-10T09:10:29.268Z,7.22
2023-05-10T09:12:59.342Z,12.95
2023-05-10T09:15:26.881Z,9.10
2023-05-10T09:17:53.755Z,6.22
2023-05-10T09:20:20.689Z,8.93
2023-05-10T09:22:47.428Z,10.57
2023-05-10T09:25:17.981Z,9.80
2023-05-10T09:27:48.778Z,8.23
2023-05-10T09:30:29.171Z,10.05
2023-05-10T09:32:57.460Z,7.38
2023-05-10T09:35:28.696Z,8.82
2023-05-10T09:37:57.882Z,8.13
2023-05-10T09:40:27.066Z,7.28
2023-05-10T09:42:55.441Z,6.50
2023-05-10T09:45:23.672Z,7.90
2023-05-10T09:47:50.641Z,11.70
2023-05-10T09:50:17.873Z,9.77
2023-05-10T09:52:52.670Z,7.82
2023-05-10T09:55:21.617Z,7.88
2023-05-10T09:57:49.484Z,8.07
2023-05-10T10:00:21.134Z,12.48
2023-05-10T10:02:54.988Z,6.47
2023-05-10T10:05:22.072Z,7.18
2023-05-10T10:07:50.319Z,8.23
2023-05-10T10:10:17.184Z,7.63
2023-05-10T10:12:44.065Z,8.02
2023-05-10T10:15:11.588Z,7.53
2023-05-10T10:17:40.449Z,9.18
2023-05-10T10:20:11.142Z,9.43
2023-05-10T10:22:38.750Z,12.07
2023-05-10T10:25:06.738Z,10.00
2023-05-10T10:28:28.119Z,9.48
2023-05-10T10:30:57.407Z,9.88
2023-05-10T10:33:56.623Z,9.32
2023-05-10T10:36:23.460Z,10.13
2023-05-10T10:38:50.302Z,8.05
2023-05-10T10:41:32.469Z,3.33
2023-05-10T10:44:27.204Z,8.90
2023-05-10T10:47:14.991Z,8.82
2023-05-10T10:49:44.637Z,10.13
2023-05-10T10:52:30.260Z,8.52
2023-05-10T10:55:11.248Z,10.68
2023-05-10T10:58:01.777Z,9.48
2023-05-10T11:00:37.946Z,7.25
2023-05-10T11:03:09.730Z,7.60
2023-05-10T11:05:50.126Z,5.70
2023-05-10T11:08:28.887Z,6.13
2023-05-10T11:11:01.468Z,3.95
2023-05-10T11:13:33.509Z,9.43
2023-05-10T11:18:29.839Z,9.40
2023-05-10T11:21:03.789Z,11.35
2023-05-10T11:23:40.546Z,8.75
2023-05-10T11:26:10.581Z,12.07
2023-05-10T11:28:53.007Z,10.75
2023-05-10T11:31:20.947Z,12.95
2023-05-10T11:33:53.372Z,14.25
2023-05-10T11:36:22.471Z,9.20
2023-05-10T11:38:49.684Z,7.65
2023-05-10T11:41:19.150Z,8.77
2023-05-10T11:43:50.477Z,8.40
2023-05-10T11:46:19.498Z,7.93
2023-05-10T11:48:46.419Z,9.88
2023-05-10T11:51:13.110Z,8.18
2023-05-10T11:53:39.785Z,6.65
2023-05-10T11:56:08.617Z,7.93
2023-05-10T11:58:37.293Z,5.25
2023-05-10T12:01:07.838Z,8.88
2023-05-10T12:03:35.520Z,7.40
2023-05-10T12:06:03.110Z,6.50
2023-05-10T12:08:31.838Z,9.35
2023-05-10T12:11:09.718Z,9.60
2023-05-10T12:13:41.467Z,7.70
2023-05-10T12:16:19.484Z,7.25
2023-05-10T12:18:49.478Z,8.27
2023-05-10T12:21:17.451Z,8.50
2023-05-10T12:23:47.011Z,8.55
2023-05-10T12:26:14.133Z,6.18
2023-05-10T12:28:40.715Z,7.75
2023-05-10T12:31:07.824Z,8.13
2023-05-10T12:33:39.981Z,4.97
2023-05-10T12:36:07.772Z,7.80
2023-05-10T12:38:36.601Z,10.93
2023-05-10T12:41:05.981Z,9.43
2023-05-10T12:43:33.157Z,8.10
2023-05-10T12:46:00.319Z,10.45
2023-05-10T12:48:27.049Z,10.50
2023-05-10T12:50:54.310Z,9.77
2023-05-10T12:53:22.352Z,8.65
2023-05-10T12:55:49.146Z,8.45
2023-05-10T12:58:31.532Z,12.80
2023-05-10T13:01:04.344Z,4.55
2023-05-10T13:03:31.560Z,10.52
2023-05-10T13:05:58.228Z,11.50
2023-05-10T13:08:25.395Z,11.35
2023-05-10T13:10:52.047Z,9.50
2023-05-10T13:13:19.280Z,9.40
2023-05-10T13:15:46.025Z,7.07
2023-05-10T13:18:12.752Z,9.93
2023-05-10T13:20:39.515Z,9.50
2023-05-10T13:23:06.352Z,8.02
2023-05-10T13:25:33.118Z,8.85
2023-05-10T13:27:59.742Z,7.20
2023-05-10T13:30:26.378Z,7.68
2023-05-10T13:32:53.246Z,8.57
2023-05-10T13:35:20.152Z,11.32
2023-05-10T13:37:46.824Z,8.40
2023-05-10T13:40:13.476Z,6.50
2023-05-10T13:42:40.787Z,8.10
2023-05-10T13:45:07.929Z,9.25
2023-05-10T13:47:34.710Z,4.60
2023-05-10T13:50:02.124Z,11.55
2023-05-10T13:52:28.736Z,9.90
2023-05-10T13:54:58.350Z,9.73
2023-05-10T13:57:25.157Z,12.43
2023-05-10T13:59:51.901Z,11.05
2023-05-10T14:02:18.540Z,7.75
2023-05-10T14:04:45.292Z,9.50
2023-05-10T14:07:12.081Z,8.25
2023-05-10T14:09:38.641Z,9.50
2023-05-10T14:12:06.253Z,5.40
2023-05-10T14:14:32.983Z,6.40
2023-05-10T14:17:00.362Z,10.52
2023-05-10T14:19:28.179Z,8.90
2023-05-10T14:21:54.842Z,9.75
2023-05-10T14:24:21.501Z,11.25
2023-05-10T14:26:48.168Z,11.57
2023-05-10T14:29:14.709Z,6.22
2023-05-10T14:31:41.474Z,6.60
2023-05-10T14:34:08.121Z,15.25
2023-05-10T14:36:34.729Z,6.40
2023-05-10T14:39:01.379Z,8.25
2023-05-10T14:41:28.056Z,9.07
2023-05-10T14:43:54.667Z,7.57
2023-05-10T14:46:21.272Z,9.27
2023-05-10T14:48:47.878Z,12.40
2023-05-10T14:51:14.915Z,8.18
2023-05-10T14:53:41.739Z,6.03
2023-05-10T14:56:08.539Z,8.25
2023-05-10T14:58:35.141Z,9.70
2023-05-10T15:01:01.871Z,8.52
2023-05-10T15:03:29.567Z,4.43
2023-05-10T15:05:58.623Z,9.25
2023-05-10T15:08:35.780Z,8.60
2023-05-10T15:11:02.612Z,10.05
2023-05-10T15:13:29.208Z,9.65
2023-05-10T15:15:55.876Z,10.00
2023-05-10T15:18:25.040Z,8.65
2023-05-10T15:20:51.714Z,6.90
2023-05-10T15:23:18.353Z,7.88
2023-05-10T15:25:45.108Z,5.72
2023-05-10T15:28:11.718Z,9.15
2023-05-10T15:30:38.804Z,14.80
2023-05-10T15:33:05.446Z,6.95
2023-05-10T15:35:32.640Z,4.43
2023-05-10T15:37:59.296Z,6.53
2023-05-10T15:40:25.895Z,5.35
2023-05-10T15:42:52.578Z,7.88
2023-05-10T15:45:19.469Z,9.18
2023-05-10T15:47:46.442Z,6.75
2023-05-10T15:50:13.071Z,6.50
2023-05-10T15:52:39.701Z,7.75
2023-05-10T15:55:12.983Z,6.05
2023-05-10T15:57:41.416Z,7.10
2023-05-10T16:00:09.694Z,4.88
2023-05-10T16:02:36.521Z,8.73
2023-05-10T16:05:04.147Z,6.47
2023-05-10T16:07:30.830Z,7.10
2023-05-10T16:09:57.493Z,6.20
2023-05-10T16:12:24.262Z,8.65
2023-05-10T16:14:50.864Z,4.35
2023-05-10T16:17:17.724Z,13.25
2023-05-10T16:19:44.648Z,8.77
2023-05-10T16:22:11.405Z,8.32
2023-05-10T16:24:38.050Z,6.53
2023-05-10T16:27:04.756Z,7.93
2023-05-10T16:29:32.074Z,10.60
2023-05-10T16:31:58.705Z,5.57
2023-05-10T16:34:25.478Z,12.23
2023-05-10T16:36:52.777Z,9.73
2023-05-10T16:39:19.537Z,9.52
2023-05-10T16:41:46.176Z,8.95
2023-05-10T16:44:12.876Z,7.50
2023-05-10T16:46:39.725Z,7.70
2023-05-10T16:49:06.857Z,11.50
2023-05-10T16:51:33.468Z,9.77
2023-05-10T16:54:00.130Z,9.75
2023-05-10T16:56:26.886Z,11.38
2023-05-10T16:58:54.138Z,9.50
2023-05-10T17:01:22.012Z,8.60
2023-05-10T17:03:49.654Z,8.80
2023-05-10T17:06:16.332Z,5.45
2023-05-10T17:08:43.247Z,12.05
2023-05-10T17:11:09.840Z,5.32
2023-05-10T17:13:36.531Z,8.52
2023-05-10T17:16:06.032Z,5.43
2023-05-10T17:18:32.943Z,10.95
2023-05-10T17:20:59.556Z,12.15
2023-05-10T17:23:26.356Z,6.18
2023-05-10T17:25:52.977Z,8.18
2023-05-10T17:28:19.729Z,6.97
2023-05-10T17:30:46.467Z,7.75
2023-05-10T17:33:13.179Z,10.23
2023-05-10T17:35:39.810Z,10.35
2023-05-10T17:38:06.633Z,8.52
2023-05-10T17:40:33.284Z,10.90
2023-05-10T17:43:00.280Z,7.07
2023-05-10T17:45:27.198Z,3.33
2023-05-10T17:47:53.860Z,9.18
2023-05-10T17:50:20.691Z,9.18
2023-05-10T17:52:47.325Z,14.45
2023-05-10T17:55:14.220Z,8.93
2023-05-10T17:57:41.030Z,7.22
2023-05-10T18:00:09.319Z,10.98
2023-05-10T18:02:36.977Z,9.18
2023-05-10T18:05:04.454Z,10.98
2023-05-10T18:07:31.579Z,11.38
2023-05-10T18:09:58.596Z,7.00
2023-05-10T18:12:25.313Z,6.38
2023-05-10T18:14:52.300Z,14.77
2023-05-10T18:17:18.973Z,12.68
2023-05-10T18:19:45.638Z,6.10
2023-05-10T18:22:12.245Z,16.25
2023-05-10T18:24:40.078Z,6.97
2023-05-10T18:27:08.943Z,7.00
2023-05-10T18:29:36.387Z,6.40
2023-05-10T18:32:03.148Z,4.97
2023-05-10T18:34:29.784Z,2.05
2023-05-10T18:36:56.663Z,6.65
2023-05-10T18:39:24.367Z,8.18
2023-05-10T18:41:51.140Z,8.07
2023-05-10T18:44:18.942Z,5.72
2023-05-10T18:46:46.450Z,7.35
2023-05-10T18:49:13.274Z,6.63
2023-05-10T18:51:40.178Z,3.58
2023-05-10T18:54:07.343Z,6.20
2023-05-10T18:56:34.094Z,6.05
2023-05-10T18:59:00.925Z,7.07
2023-05-10T19:01:27.523Z,7.40
2023-05-10T19:03:54.269Z,4.75
2023-05-10T19:06:20.961Z,6.30
2023-05-10T19:08:47.556Z,7.03
2023-05-10T19:11:14.232Z,5.35
2023-05-10T19:13:40.863Z,9.27
2023-05-10T19:16:12.530Z,8.50
2023-05-10T19:18:40.006Z,5.55
2023-05-10T19:21:07.855Z,6.68
2023-05-10T19:23:35.211Z,4.43
2023-05-10T19:26:01.962Z,5.38
2023-05-10T19:28:28.713Z,6.30
2023-05-10T19:30:55.394Z,6.82
2023-05-10T19:33:22.286Z,2.95
2023-05-10T19:35:52.518Z,6.18
2023-05-10T19:38:22.741Z,8.57
2023-05-10T19:40:59.394Z,5.15
2023-05-10T19:43:27.736Z,7.97
2023-05-10T19:45:55.359Z,8.90
2023-05-10T19:48:22.058Z,4.90
2023-05-10T19:50:48.686Z,3.92
2023-05-10T19:53:15.415Z,5.35
2023-05-10T19:55:42.142Z,4.07
2023-05-10T19:58:08.951Z,3.42
2023-05-10T20:00:36.042Z,4.53
2023-05-10T20:03:03.037Z,3.50
2023-05-10T20:05:29.702Z,6.15
2023-05-10T20:07:56.428Z,4.97
2023-05-10T20:10:25.203Z,5.47
2023-05-10T20:12:53.880Z,6.15
2023-05-10T20:15:22.198Z,4.15
2023-05-10T20:17:53.810Z,6.80
2023-05-10T20:20:21.406Z,5.32
2023-05-10T20:22:48.770Z,5.53
2023-05-10T20:25:16.515Z,6.38
2023-05-10T20:27:43.488Z,5.32
2023-05-10T20:30:10.550Z,4.32
2023-05-10T20:32:38.068Z,5.78
2023-05-10T20:35:06.061Z,3.75
2023-05-10T20:37:33.144Z,4.88
2023-05-10T20:39:59.904Z,5.28
2023-05-10T20:42:26.550Z,7.30
2023-05-10T20:44:53.196Z,5.43
2023-05-10T20:47:19.862Z,5.15
2023-05-10T20:49:46.567Z,4.72
2023-05-10T20:52:13.265Z,4.68
2023-05-10T20:54:39.825Z,5.20
2023-05-10T20:57:06.664Z,5.95
2023-05-10T20:59:33.805Z,5.63
2023-05-10T21:02:00.575Z,5.25
2023-05-10T21:04:27.294Z,6.10
2023-05-10T21:06:55.662Z,6.18
2023-05-10T21:09:22.508Z,6.90
2023-05-10T21:11:49.941Z,4.88
2023-05-10T21:14:16.687Z,4.07
2023-05-10T21:16:43.595Z,6.78
2023-05-10T21:19:10.535Z,4.50
2023-05-10T21:21:37.254Z,3.50
2023-05-10T21:24:04.336Z,5.35
2023-05-10T21:26:31.377Z,4.57
2023-05-10T21:28:59.311Z,5.28
2023-05-10T21:31:26.027Z,5.20
2023-05-10T21:33:52.680Z,6.63
2023-05-10T21:36:19.626Z,5.28
2023-05-10T21:38:46.808Z,4.03
2023-05-10T21:41:13.465Z,5.88
2023-05-10T21:43:40.086Z,6.05
2023-05-10T21:46:07.440Z,6.93
2023-05-10T21:48:34.094Z,10.82
2023-05-10T21:51:01.859Z,9.77
2023-05-10T21:53:28.872Z,7.70
2023-05-10T21:55:56.374Z,4.57
2023-05-10T21:58:23.403Z,3.38
2023-05-10T22:00:50.098Z,5.93
2023-05-10T22:03:16.985Z,4.60
2023-05-10T22:05:43.781Z,4.80
2023-05-10T22:08:10.417Z,4.60
2023-05-10T22:10:37.107Z,5.13
2023-05-10T22:13:03.733Z,7.03
2023-05-10T22:15:34.152Z,6.47
2023-05-10T22:18:02.466Z,6.82
2023-05-10T22:20:29.506Z,5.18
2023-05-10T22:22:56.197Z,3.85
2023-05-10T22:25:22.942Z,5.95
2023-05-10T22:27:49.689Z,5.15
2023-05-10T22:30:17.138Z,5.55
2023-05-10T22:32:44.141Z,6.65
2023-05-10T22:35:10.721Z,5.55
2023-05-10T22:37:37.395Z,6.22
2023-05-10T22:40:04.461Z,5.43
2023-05-10T22:42:31.108Z,5.88
2023-05-10T22:44:58.793Z,4.57
2023-05-10T22:47:25.718Z,6.88
2023-05-10T22:49:52.511Z,7.95
2023-05-10T22:52:19.144Z,9.25
2023-05-10T22:54:45.835Z,3.45
2023-05-10T22:57:12.669Z,9.20
2023-05-10T22:59:39.313Z,8.32
2023-05-10T23:02:06.210Z,7.07
2023-05-10T23:04:32.988Z,8.30
2023-05-10T23:06:59.674Z,8.23
2023-05-10T23:09:26.284Z,8.07
2023-05-10T23:11:52.985Z,4.80
2023-05-10T23:14:19.565Z,5.95
2023-05-10T23:16:46.236Z,3.67
2023-05-10T23:19:12.885Z,9.00
2023-05-10T23:21:39.512Z,4.35
2023-05-10T23:24:08.574Z,5.10
2023-05-10T23:26:35.457Z,13.38
2023-05-10T23:29:02.452Z,9.75
2023-05-10T23:31:29.194Z,8.75
2023-05-10T23:33:55.916Z,11.15
2023-05-10T23:36:22.621Z,3.35
2023-05-10T23:38:49.289Z,6.28
2023-05-10T23:41:15.941Z,8.45
2023-05-10T23:43:42.610Z,10.32
2023-05-10T23:46:09.257Z,7.00
2023-05-10T23:48:35.990Z,8.60
2023-05-10T23:51:02.609Z,5.18
2023-05-10T23:53:29.304Z,8.50
2023-05-10T23:55:55.943Z,7.20
2023-05-10T23:58:22.511Z,6.57
